sensor_id;sensor_type;location;lat;lon;timestamp;temperature;humidity
69464;DHT22;56665;41.106;16.688;2023-02-28T00:00:50;10.84;85.83
69464;DHT22;56665;41.106;16.688;2023-02-28T00:03:54;10.84;85.67
69464;DHT22;56665;41.106;16.688;2023-02-28T00:06:59;10.84;85.86
69464;DHT22;56665;41.106;16.688;2023-02-28T00:10:04;10.84;86.25
69464;DHT22;56665;41.106;16.688;2023-02-28T00:13:09;10.75;86.11
69464;DHT22;56665;41.106;16.688;2023-02-28T00:16:19;10.75;86.33
69464;DHT22;56665;41.106;16.688;2023-02-28T00:19:24;10.73;85.97
69464;DHT22;56665;41.106;16.688;2023-02-28T00:22:27;10.73;85.85
69464;DHT22;56665;41.106;16.688;2023-02-28T00:25:31;10.72;85.21
69464;DHT22;56665;41.106;16.688;2023-02-28T00:28:35;10.80;86.41
69464;DHT22;56665;41.106;16.688;2023-02-28T00:31:40;10.86;86.32
69464;DHT22;56665;41.106;16.688;2023-02-28T00:34:44;10.86;85.67
69464;DHT22;56665;41.106;16.688;2023-02-28T00:37:48;10.88;85.68
69464;DHT22;56665;41.106;16.688;2023-02-28T00:40:52;10.94;85.54
69464;DHT22;56665;41.106;16.688;2023-02-28T00:43:57;10.96;85.09
69464;DHT22;56665;41.106;16.688;2023-02-28T00:47:01;10.96;84.87
69464;DHT22;56665;41.106;16.688;2023-02-28T00:50:05;10.97;85.04
69464;DHT22;56665;41.106;16.688;2023-02-28T00:53:10;10.97;84.84
69464;DHT22;56665;41.106;16.688;2023-02-28T00:56:15;10.90;84.81
69464;DHT22;56665;41.106;16.688;2023-02-28T00:59:19;10.87;84.61
69464;DHT22;56665;41.106;16.688;2023-02-28T01:02:22;10.84;84.35
69464;DHT22;56665;41.106;16.688;2023-02-28T01:05:26;10.77;84.30
69464;DHT22;56665;41.106;16.688;2023-02-28T01:08:30;10.70;84.65
69464;DHT22;56665;41.106;16.688;2023-02-28T01:11:35;10.65;84.59
69464;DHT22;56665;41.106;16.688;2023-02-28T01:14:38;10.60;85.04
69464;DHT22;56665;41.106;16.688;2023-02-28T01:17:42;10.59;85.28
69464;DHT22;56665;41.106;16.688;2023-02-28T01:20:46;10.52;84.83
69464;DHT22;56665;41.106;16.688;2023-02-28T01:23:50;10.50;85.09
69464;DHT22;56665;41.106;16.688;2023-02-28T01:26:54;10.53;85.17
69464;DHT22;56665;41.106;16.688;2023-02-28T01:29:58;10.57;84.84
69464;DHT22;56665;41.106;16.688;2023-02-28T01:33:02;10.59;85.01
69464;DHT22;56665;41.106;16.688;2023-02-28T01:36:09;10.60;85.02
69464;DHT22;56665;41.106;16.688;2023-02-28T01:39:13;10.66;84.51
69464;DHT22;56665;41.106;16.688;2023-02-28T01:42:17;10.69;84.43
69464;DHT22;56665;41.106;16.688;2023-02-28T01:45:31;10.70;84.51
69464;DHT22;56665;41.106;16.688;2023-02-28T01:48:39;10.69;84.28
69464;DHT22;56665;41.106;16.688;2023-02-28T01:51:49;10.69;84.70
69464;DHT22;56665;41.106;16.688;2023-02-28T01:54:59;10.73;84.63
69464;DHT22;56665;41.106;16.688;2023-02-28T01:58:05;10.70;84.40
69464;DHT22;56665;41.106;16.688;2023-02-28T02:01:09;10.70;84.72
69464;DHT22;56665;41.106;16.688;2023-02-28T02:04:27;10.77;84.23
69464;DHT22;56665;41.106;16.688;2023-02-28T02:07:37;10.75;84.12
69464;DHT22;56665;41.106;16.688;2023-02-28T02:11:02;10.69;83.38
69464;DHT22;56665;41.106;16.688;2023-02-28T02:17:37;10.62;84.00
69464;DHT22;56665;41.106;16.688;2023-02-28T02:31:22;10.52;83.83
69464;DHT22;56665;41.106;16.688;2023-02-28T02:41:18;10.39;85.00
69464;DHT22;56665;41.106;16.688;2023-02-28T02:44:43;10.39;84.92
69464;DHT22;56665;41.106;16.688;2023-02-28T02:47:50;10.38;84.66
69464;DHT22;56665;41.106;16.688;2023-02-28T02:50:57;10.35;84.72
69464;DHT22;56665;41.106;16.688;2023-02-28T02:54:24;10.36;85.27
69464;DHT22;56665;41.106;16.688;2023-02-28T02:57:43;10.40;85.08
69464;DHT22;56665;41.106;16.688;2023-02-28T03:00:52;10.39;84.71
69464;DHT22;56665;41.106;16.688;2023-02-28T03:03:58;10.38;84.32
69464;DHT22;56665;41.106;16.688;2023-02-28T03:07:02;10.39;84.32
69464;DHT22;56665;41.106;16.688;2023-02-28T03:14:03;10.38;83.80
69464;DHT22;56665;41.106;16.688;2023-02-28T03:17:36;10.35;83.81
69464;DHT22;56665;41.106;16.688;2023-02-28T03:21:18;10.26;84.09
69464;DHT22;56665;41.106;16.688;2023-02-28T03:24:37;10.21;84.68
69464;DHT22;56665;41.106;16.688;2023-02-28T03:31:38;10.12;84.63
69464;DHT22;56665;41.106;16.688;2023-02-28T03:35:11;10.11;84.78
69464;DHT22;56665;41.106;16.688;2023-02-28T03:38:29;10.09;84.62
69464;DHT22;56665;41.106;16.688;2023-02-28T03:41:39;10.12;84.58
69464;DHT22;56665;41.106;16.688;2023-02-28T03:47:58;10.18;84.31
69464;DHT22;56665;41.106;16.688;2023-02-28T03:51:07;10.22;84.10
69464;DHT22;56665;41.106;16.688;2023-02-28T03:54:19;10.22;84.24
69464;DHT22;56665;41.106;16.688;2023-02-28T03:57:41;10.22;84.33
69464;DHT22;56665;41.106;16.688;2023-02-28T04:00:53;10.25;84.19
69464;DHT22;56665;41.106;16.688;2023-02-28T04:03:58;10.28;83.90
69464;DHT22;56665;41.106;16.688;2023-02-28T04:07:05;10.25;83.74
69464;DHT22;56665;41.106;16.688;2023-02-28T04:10:11;10.26;84.06
69464;DHT22;56665;41.106;16.688;2023-02-28T04:13:15;10.28;84.36
69464;DHT22;56665;41.106;16.688;2023-02-28T04:16:18;10.35;84.43
69464;DHT22;56665;41.106;16.688;2023-02-28T04:19:23;10.43;84.21
69464;DHT22;56665;41.106;16.688;2023-02-28T04:22:28;10.50;84.02
69464;DHT22;56665;41.106;16.688;2023-02-28T04:25:32;10.57;83.90
69464;DHT22;56665;41.106;16.688;2023-02-28T04:28:37;10.65;84.10
69464;DHT22;56665;41.106;16.688;2023-02-28T04:31:41;10.70;83.58
69464;DHT22;56665;41.106;16.688;2023-02-28T04:34:45;10.70;82.87
69464;DHT22;56665;41.106;16.688;2023-02-28T04:37:49;10.76;82.23
69464;DHT22;56665;41.106;16.688;2023-02-28T04:40:53;10.77;82.12
69464;DHT22;56665;41.106;16.688;2023-02-28T04:43:58;10.73;82.14
69464;DHT22;56665;41.106;16.688;2023-02-28T04:47:01;10.67;82.46
69464;DHT22;56665;41.106;16.688;2023-02-28T04:50:05;10.66;83.04
69464;DHT22;56665;41.106;16.688;2023-02-28T04:53:09;10.69;83.37
69464;DHT22;56665;41.106;16.688;2023-02-28T04:56:15;10.75;82.62
69464;DHT22;56665;41.106;16.688;2023-02-28T04:59:19;10.79;82.27
69464;DHT22;56665;41.106;16.688;2023-02-28T05:02:23;10.75;82.27
69464;DHT22;56665;41.106;16.688;2023-02-28T05:05:27;10.73;82.56
69464;DHT22;56665;41.106;16.688;2023-02-28T05:08:31;10.70;82.70
69464;DHT22;56665;41.106;16.688;2023-02-28T05:11:38;10.70;83.01
69464;DHT22;56665;41.106;16.688;2023-02-28T05:14:43;10.72;83.12
69464;DHT22;56665;41.106;16.688;2023-02-28T05:17:47;10.70;82.73
69464;DHT22;56665;41.106;16.688;2023-02-28T05:20:51;10.73;82.89
69464;DHT22;56665;41.106;16.688;2023-02-28T05:23:59;10.75;82.67
69464;DHT22;56665;41.106;16.688;2023-02-28T05:27:03;10.76;82.96
69464;DHT22;56665;41.106;16.688;2023-02-28T05:30:08;10.72;82.91
69464;DHT22;56665;41.106;16.688;2023-02-28T05:33:14;10.72;82.83
69464;DHT22;56665;41.106;16.688;2023-02-28T05:36:18;10.67;83.00
69464;DHT22;56665;41.106;16.688;2023-02-28T05:39:23;10.75;83.14
69464;DHT22;56665;41.106;16.688;2023-02-28T05:42:26;10.76;82.93
69464;DHT22;56665;41.106;16.688;2023-02-28T05:45:30;10.80;83.19
69464;DHT22;56665;41.106;16.688;2023-02-28T05:48:37;10.81;82.75
69464;DHT22;56665;41.106;16.688;2023-02-28T05:51:41;10.81;82.72
69464;DHT22;56665;41.106;16.688;2023-02-28T05:54:46;10.86;83.44
69464;DHT22;56665;41.106;16.688;2023-02-28T05:57:50;10.90;82.75
69464;DHT22;56665;41.106;16.688;2023-02-28T06:00:54;10.91;82.67
69464;DHT22;56665;41.106;16.688;2023-02-28T06:04:02;10.98;83.06
69464;DHT22;56665;41.106;16.688;2023-02-28T06:07:07;11.07;82.50
69464;DHT22;56665;41.106;16.688;2023-02-28T06:10:12;11.12;82.15
69464;DHT22;56665;41.106;16.688;2023-02-28T06:13:16;11.25;82.19
69464;DHT22;56665;41.106;16.688;2023-02-28T06:16:20;11.35;81.78
69464;DHT22;56665;41.106;16.688;2023-02-28T06:19:24;11.39;81.56
69464;DHT22;56665;41.106;16.688;2023-02-28T06:22:31;11.44;81.43
69464;DHT22;56665;41.106;16.688;2023-02-28T06:25:35;11.48;81.13
69464;DHT22;56665;41.106;16.688;2023-02-28T06:28:39;11.51;81.48
69464;DHT22;56665;41.106;16.688;2023-02-28T06:31:47;11.63;80.86
69464;DHT22;56665;41.106;16.688;2023-02-28T06:34:52;11.89;80.48
69464;DHT22;56665;41.106;16.688;2023-02-28T06:37:56;12.07;79.58
69464;DHT22;56665;41.106;16.688;2023-02-28T06:41:01;12.17;79.14
69464;DHT22;56665;41.106;16.688;2023-02-28T06:44:11;12.23;79.22
69464;DHT22;56665;41.106;16.688;2023-02-28T06:47:15;12.23;79.09
69464;DHT22;56665;41.106;16.688;2023-02-28T06:50:19;12.41;78.69
69464;DHT22;56665;41.106;16.688;2023-02-28T06:53:23;12.61;77.70
69464;DHT22;56665;41.106;16.688;2023-02-28T06:56:27;12.76;77.49
69464;DHT22;56665;41.106;16.688;2023-02-28T06:59:31;12.80;77.40
69464;DHT22;56665;41.106;16.688;2023-02-28T07:02:36;12.89;77.05
69464;DHT22;56665;41.106;16.688;2023-02-28T07:05:40;12.95;77.00
69464;DHT22;56665;41.106;16.688;2023-02-28T07:08:45;12.99;76.89
69464;DHT22;56665;41.106;16.688;2023-02-28T07:11:49;13.00;76.79
69464;DHT22;56665;41.106;16.688;2023-02-28T07:14:53;12.92;77.19
69464;DHT22;56665;41.106;16.688;2023-02-28T07:17:59;12.79;77.35
69464;DHT22;56665;41.106;16.688;2023-02-28T07:21:05;12.83;77.94
69464;DHT22;56665;41.106;16.688;2023-02-28T07:24:09;13.03;77.85
69464;DHT22;56665;41.106;16.688;2023-02-28T07:27:14;13.24;77.97
69464;DHT22;56665;41.106;16.688;2023-02-28T07:30:28;13.33;75.96
69464;DHT22;56665;41.106;16.688;2023-02-28T07:33:32;13.77;75.36
69464;DHT22;56665;41.106;16.688;2023-02-28T07:36:37;14.18;73.95
69464;DHT22;56665;41.106;16.688;2023-02-28T07:39:41;14.33;73.02
69464;DHT22;56665;41.106;16.688;2023-02-28T07:42:45;14.26;72.94
69464;DHT22;56665;41.106;16.688;2023-02-28T07:45:53;14.22;73.03
69464;DHT22;56665;41.106;16.688;2023-02-28T07:48:58;14.36;72.74
69464;DHT22;56665;41.106;16.688;2023-02-28T07:52:05;14.37;72.08
69464;DHT22;56665;41.106;16.688;2023-02-28T07:55:10;14.29;72.52
69464;DHT22;56665;41.106;16.688;2023-02-28T07:58:14;14.27;72.48
69464;DHT22;56665;41.106;16.688;2023-02-28T08:01:19;14.37;72.64
69464;DHT22;56665;41.106;16.688;2023-02-28T08:04:23;14.53;71.90
69464;DHT22;56665;41.106;16.688;2023-02-28T08:07:27;14.55;71.37
69464;DHT22;56665;41.106;16.688;2023-02-28T08:10:32;14.61;71.28
69464;DHT22;56665;41.106;16.688;2023-02-28T08:13:37;14.64;71.13
69464;DHT22;56665;41.106;16.688;2023-02-28T08:16:42;14.80;70.91
69464;DHT22;56665;41.106;16.688;2023-02-28T08:19:46;14.98;70.54
69464;DHT22;56665;41.106;16.688;2023-02-28T08:22:50;15.25;69.38
69464;DHT22;56665;41.106;16.688;2023-02-28T08:25:55;15.52;68.81
69464;DHT22;56665;41.106;16.688;2023-02-28T08:28:59;16.11;66.90
69464;DHT22;56665;41.106;16.688;2023-02-28T08:32:06;16.31;66.58
69464;DHT22;56665;41.106;16.688;2023-02-28T08:35:09;16.24;65.61
69464;DHT22;56665;41.106;16.688;2023-02-28T08:38:13;16.29;65.83
69464;DHT22;56665;41.106;16.688;2023-02-28T08:41:18;16.27;66.21
69464;DHT22;56665;41.106;16.688;2023-02-28T08:44:22;16.31;66.07
69464;DHT22;56665;41.106;16.688;2023-02-28T08:47:26;16.48;65.93
69464;DHT22;56665;41.106;16.688;2023-02-28T08:50:29;16.55;65.70
69464;DHT22;56665;41.106;16.688;2023-02-28T08:53:34;16.70;65.17
69464;DHT22;56665;41.106;16.688;2023-02-28T08:56:38;16.62;65.36
69464;DHT22;56665;41.106;16.688;2023-02-28T08:59:42;16.52;65.19
69464;DHT22;56665;41.106;16.688;2023-02-28T09:02:46;16.68;64.36
69464;DHT22;56665;41.106;16.688;2023-02-28T09:05:55;17.32;63.12
69464;DHT22;56665;41.106;16.688;2023-02-28T09:09:00;17.90;61.18
69464;DHT22;56665;41.106;16.688;2023-02-28T09:12:05;17.74;61.65
69464;DHT22;56665;41.106;16.688;2023-02-28T09:15:09;17.30;62.01
69464;DHT22;56665;41.106;16.688;2023-02-28T09:18:15;17.88;61.30
69464;DHT22;56665;41.106;16.688;2023-02-28T09:21:19;18.54;59.66
69464;DHT22;56665;41.106;16.688;2023-02-28T09:24:23;18.44;59.31
69464;DHT22;56665;41.106;16.688;2023-02-28T09:27:27;18.03;60.41
69464;DHT22;56665;41.106;16.688;2023-02-28T09:30:31;18.06;61.53
69464;DHT22;56665;41.106;16.688;2023-02-28T09:33:35;18.58;59.54
69464;DHT22;56665;41.106;16.688;2023-02-28T09:36:39;18.74;59.71
69464;DHT22;56665;41.106;16.688;2023-02-28T09:39:44;19.10;58.61
69464;DHT22;56665;41.106;16.688;2023-02-28T09:42:49;19.25;57.68
69464;DHT22;56665;41.106;16.688;2023-02-28T09:45:59;20.57;55.55
69464;DHT22;56665;41.106;16.688;2023-02-28T09:49:19;20.53;55.92
69464;DHT22;56665;41.106;16.688;2023-02-28T09:52:30;18.53;59.52
69464;DHT22;56665;41.106;16.688;2023-02-28T09:55:45;17.67;61.91
69464;DHT22;56665;41.106;16.688;2023-02-28T09:59:00;17.28;63.29
69464;DHT22;56665;41.106;16.688;2023-02-28T10:06:33;18.14;61.47
69464;DHT22;56665;41.106;16.688;2023-02-28T10:09:39;18.58;59.48
69464;DHT22;56665;41.106;16.688;2023-02-28T10:12:44;18.07;60.68
69464;DHT22;56665;41.106;16.688;2023-02-28T10:15:56;17.83;62.03
69464;DHT22;56665;41.106;16.688;2023-02-28T10:26:01;17.31;63.12
69464;DHT22;56665;41.106;16.688;2023-02-28T10:29:09;17.51;62.62
69464;DHT22;56665;41.106;16.688;2023-02-28T10:32:16;17.55;62.81
69464;DHT22;56665;41.106;16.688;2023-02-28T10:35:25;18.14;61.95
69464;DHT22;56665;41.106;16.688;2023-02-28T10:38:36;18.57;60.33
69464;DHT22;56665;41.106;16.688;2023-02-28T10:41:42;18.27;60.56
69464;DHT22;56665;41.106;16.688;2023-02-28T10:44:46;17.76;61.33
69464;DHT22;56665;41.106;16.688;2023-02-28T10:48:10;17.59;62.57
69464;DHT22;56665;41.106;16.688;2023-02-28T10:51:35;17.49;63.07
69464;DHT22;56665;41.106;16.688;2023-02-28T10:54:39;17.42;63.48
69464;DHT22;56665;41.106;16.688;2023-02-28T10:57:44;16.80;64.58
69464;DHT22;56665;41.106;16.688;2023-02-28T11:00:48;16.48;65.60
69464;DHT22;56665;41.106;16.688;2023-02-28T11:03:53;16.06;66.68
69464;DHT22;56665;41.106;16.688;2023-02-28T11:07:02;15.67;67.64
69464;DHT22;56665;41.106;16.688;2023-02-28T11:10:19;15.36;68.79
69464;DHT22;56665;41.106;16.688;2023-02-28T11:13:33;15.22;69.05
69464;DHT22;56665;41.106;16.688;2023-02-28T11:16:37;14.68;70.73
69464;DHT22;56665;41.106;16.688;2023-02-28T11:19:48;14.37;72.50
69464;DHT22;56665;41.106;16.688;2023-02-28T11:22:54;14.76;71.21
69464;DHT22;56665;41.106;16.688;2023-02-28T11:26:00;14.53;71.83
69464;DHT22;56665;41.106;16.688;2023-02-28T11:29:32;14.33;72.85
69464;DHT22;56665;41.106;16.688;2023-02-28T11:32:48;14.25;72.80
69464;DHT22;56665;41.106;16.688;2023-02-28T11:35:53;13.98;73.87
69464;DHT22;56665;41.106;16.688;2023-02-28T11:39:09;14.06;74.13
69464;DHT22;56665;41.106;16.688;2023-02-28T11:42:38;13.98;73.45
69464;DHT22;56665;41.106;16.688;2023-02-28T11:52:40;14.26;73.95
69464;DHT22;56665;41.106;16.688;2023-02-28T11:56:02;14.47;72.93
69464;DHT22;56665;41.106;16.688;2023-02-28T11:59:50;14.67;73.10
69464;DHT22;56665;41.106;16.688;2023-02-28T12:03:39;15.26;71.69
69464;DHT22;56665;41.106;16.688;2023-02-28T12:07:06;15.80;68.88
69464;DHT22;56665;41.106;16.688;2023-02-28T12:10:24;16.08;67.98
69464;DHT22;56665;41.106;16.688;2023-02-28T12:13:38;16.59;67.70
69464;DHT22;56665;41.106;16.688;2023-02-28T12:17:13;17.24;65.19
69464;DHT22;56665;41.106;16.688;2023-02-28T12:20:34;17.57;63.92
69464;DHT22;56665;41.106;16.688;2023-02-28T12:27:07;17.57;64.59
69464;DHT22;56665;41.106;16.688;2023-02-28T12:30:21;17.51;64.32
69464;DHT22;56665;41.106;16.688;2023-02-28T12:33:33;17.62;64.33
69464;DHT22;56665;41.106;16.688;2023-02-28T12:36:41;17.44;64.80
69464;DHT22;56665;41.106;16.688;2023-02-28T12:39:49;17.08;66.57
69464;DHT22;56665;41.106;16.688;2023-02-28T12:43:02;17.13;66.34
69464;DHT22;56665;41.106;16.688;2023-02-28T12:46:23;17.23;66.02
69464;DHT22;56665;41.106;16.688;2023-02-28T12:49:36;17.13;65.68
69464;DHT22;56665;41.106;16.688;2023-02-28T12:53:06;16.86;67.11
69464;DHT22;56665;41.106;16.688;2023-02-28T12:59:51;16.97;66.94
69464;DHT22;56665;41.106;16.688;2023-02-28T13:03:27;16.73;67.50
69464;DHT22;56665;41.106;16.688;2023-02-28T13:10:05;17.16;66.83
69464;DHT22;56665;41.106;16.688;2023-02-28T13:13:23;17.20;65.95
69464;DHT22;56665;41.106;16.688;2023-02-28T13:16:28;16.32;68.77
69464;DHT22;56665;41.106;16.688;2023-02-28T13:19:58;16.49;68.75
69464;DHT22;56665;41.106;16.688;2023-02-28T13:27:11;17.10;67.83
69464;DHT22;56665;41.106;16.688;2023-02-28T13:34:27;16.35;69.36
69464;DHT22;56665;41.106;16.688;2023-02-28T13:37:36;16.13;70.94
69464;DHT22;56665;41.106;16.688;2023-02-28T13:40:41;16.27;70.03
69464;DHT22;56665;41.106;16.688;2023-02-28T13:47:24;15.98;70.39
69464;DHT22;56665;41.106;16.688;2023-02-28T13:50:38;15.46;72.77
69464;DHT22;56665;41.106;16.688;2023-02-28T13:54:00;15.70;71.69
69464;DHT22;56665;41.106;16.688;2023-02-28T14:07:43;14.99;74.54
69464;DHT22;56665;41.106;16.688;2023-02-28T14:10:51;15.45;73.70
69464;DHT22;56665;41.106;16.688;2023-02-28T14:14:09;15.62;73.79
69464;DHT22;56665;41.106;16.688;2023-02-28T14:17:15;15.83;73.30
69464;DHT22;56665;41.106;16.688;2023-02-28T14:20:22;16.14;71.65
69464;DHT22;56665;41.106;16.688;2023-02-28T14:23:42;16.38;70.84
69464;DHT22;56665;41.106;16.688;2023-02-28T14:27:15;16.53;71.28
69464;DHT22;56665;41.106;16.688;2023-02-28T14:30:52;16.46;70.51
69464;DHT22;56665;41.106;16.688;2023-02-28T14:37:04;16.32;71.10
69464;DHT22;56665;41.106;16.688;2023-02-28T14:40:17;15.80;72.24
69464;DHT22;56665;41.106;16.688;2023-02-28T14:43:25;15.66;73.43
69464;DHT22;56665;41.106;16.688;2023-02-28T14:46:38;15.45;74.16
69464;DHT22;56665;41.106;16.688;2023-02-28T14:49:44;15.22;75.03
69464;DHT22;56665;41.106;16.688;2023-02-28T14:52:53;15.23;75.25
69464;DHT22;56665;41.106;16.688;2023-02-28T14:56:00;14.99;75.79
69464;DHT22;56665;41.106;16.688;2023-02-28T14:59:17;15.09;76.44
69464;DHT22;56665;41.106;16.688;2023-02-28T15:02:30;15.25;76.19
69464;DHT22;56665;41.106;16.688;2023-02-28T15:05:34;15.23;75.25
69464;DHT22;56665;41.106;16.688;2023-02-28T15:08:41;15.23;76.19
69464;DHT22;56665;41.106;16.688;2023-02-28T15:11:47;15.18;76.12
69464;DHT22;56665;41.106;16.688;2023-02-28T15:14:52;15.15;76.37
69464;DHT22;56665;41.106;16.688;2023-02-28T15:17:58;15.08;76.28
69464;DHT22;56665;41.106;16.688;2023-02-28T15:21:07;15.08;76.92
69464;DHT22;56665;41.106;16.688;2023-02-28T15:27:28;15.01;77.21
69464;DHT22;56665;41.106;16.688;2023-02-28T15:30:36;14.92;76.47
69464;DHT22;56665;41.106;16.688;2023-02-28T15:33:52;14.81;77.42
69464;DHT22;56665;41.106;16.688;2023-02-28T15:36:57;14.73;77.98
69464;DHT22;56665;41.106;16.688;2023-02-28T15:40:24;14.66;78.28
69464;DHT22;56665;41.106;16.688;2023-02-28T15:43:37;14.67;78.84
69464;DHT22;56665;41.106;16.688;2023-02-28T15:47:03;14.66;79.16
69464;DHT22;56665;41.106;16.688;2023-02-28T15:50:12;14.66;79.29
69464;DHT22;56665;41.106;16.688;2023-02-28T15:53:22;14.73;78.71
69464;DHT22;56665;41.106;16.688;2023-02-28T15:56:37;14.73;79.02
69464;DHT22;56665;41.106;16.688;2023-02-28T15:59:55;14.71;78.88
69464;DHT22;56665;41.106;16.688;2023-02-28T16:03:00;14.70;79.36
69464;DHT22;56665;41.106;16.688;2023-02-28T16:09:20;14.60;78.50
69464;DHT22;56665;41.106;16.688;2023-02-28T16:12:29;14.49;79.22
69464;DHT22;56665;41.106;16.688;2023-02-28T16:15:38;14.52;79.66
69464;DHT22;56665;41.106;16.688;2023-02-28T16:18:45;14.43;79.53
69464;DHT22;56665;41.106;16.688;2023-02-28T16:21:50;14.34;79.59
69464;DHT22;56665;41.106;16.688;2023-02-28T16:24:54;14.32;79.99
69464;DHT22;56665;41.106;16.688;2023-02-28T16:27:58;14.30;79.76
69464;DHT22;56665;41.106;16.688;2023-02-28T16:31:06;14.25;80.07
69464;DHT22;56665;41.106;16.688;2023-02-28T16:34:11;14.19;80.09
69464;DHT22;56665;41.106;16.688;2023-02-28T16:37:17;14.13;80.50
69464;DHT22;56665;41.106;16.688;2023-02-28T16:40:23;14.06;80.73
69464;DHT22;56665;41.106;16.688;2023-02-28T16:43:28;14.01;80.89
69464;DHT22;56665;41.106;16.688;2023-02-28T16:46:34;14.02;81.40
69464;DHT22;56665;41.106;16.688;2023-02-28T16:49:38;13.95;81.34
69464;DHT22;56665;41.106;16.688;2023-02-28T16:52:45;13.92;81.27
69464;DHT22;56665;41.106;16.688;2023-02-28T16:55:49;13.88;81.59
69464;DHT22;56665;41.106;16.688;2023-02-28T16:58:58;13.84;81.49
69464;DHT22;56665;41.106;16.688;2023-02-28T17:02:10;13.87;81.95
69464;DHT22;56665;41.106;16.688;2023-02-28T17:05:16;13.84;81.63
69464;DHT22;56665;41.106;16.688;2023-02-28T17:08:20;13.81;81.96
69464;DHT22;56665;41.106;16.688;2023-02-28T17:11:26;13.78;82.08
69464;DHT22;56665;41.106;16.688;2023-02-28T17:14:31;13.75;82.38
69464;DHT22;56665;41.106;16.688;2023-02-28T17:17:34;13.68;82.62
69464;DHT22;56665;41.106;16.688;2023-02-28T17:20:38;13.70;82.67
69464;DHT22;56665;41.106;16.688;2023-02-28T17:23:42;13.68;82.69
69464;DHT22;56665;41.106;16.688;2023-02-28T17:26:46;13.70;82.77
69464;DHT22;56665;41.106;16.688;2023-02-28T17:29:52;13.70;82.31
69464;DHT22;56665;41.106;16.688;2023-02-28T17:32:56;13.70;82.72
69464;DHT22;56665;41.106;16.688;2023-02-28T17:36:00;13.67;82.68
69464;DHT22;56665;41.106;16.688;2023-02-28T17:39:11;13.65;82.90
69464;DHT22;56665;41.106;16.688;2023-02-28T17:42:18;13.67;82.90
69464;DHT22;56665;41.106;16.688;2023-02-28T17:45:22;13.64;83.01
69464;DHT22;56665;41.106;16.688;2023-02-28T17:48:25;13.61;82.91
69464;DHT22;56665;41.106;16.688;2023-02-28T17:51:31;13.65;83.07
69464;DHT22;56665;41.106;16.688;2023-02-28T17:54:34;13.65;83.13
69464;DHT22;56665;41.106;16.688;2023-02-28T17:57:39;13.64;83.32
69464;DHT22;56665;41.106;16.688;2023-02-28T18:00:45;13.67;83.80
69464;DHT22;56665;41.106;16.688;2023-02-28T18:03:50;13.70;83.93
69464;DHT22;56665;41.106;16.688;2023-02-28T18:06:54;13.73;83.48
69464;DHT22;56665;41.106;16.688;2023-02-28T18:09:59;13.74;83.28
69464;DHT22;56665;41.106;16.688;2023-02-28T18:13:04;13.74;83.69
69464;DHT22;56665;41.106;16.688;2023-02-28T18:16:09;13.75;83.73
69464;DHT22;56665;41.106;16.688;2023-02-28T18:19:14;13.70;83.69
69464;DHT22;56665;41.106;16.688;2023-02-28T18:22:20;13.75;83.59
69464;DHT22;56665;41.106;16.688;2023-02-28T18:25:26;13.74;83.70
69464;DHT22;56665;41.106;16.688;2023-02-28T18:28:30;13.75;84.19
69464;DHT22;56665;41.106;16.688;2023-02-28T18:31:38;13.75;84.19
69464;DHT22;56665;41.106;16.688;2023-02-28T18:34:42;13.77;84.09
69464;DHT22;56665;41.106;16.688;2023-02-28T18:37:47;13.70;83.86
69464;DHT22;56665;41.106;16.688;2023-02-28T18:40:54;13.73;84.20
69464;DHT22;56665;41.106;16.688;2023-02-28T18:44:00;13.71;84.16
69464;DHT22;56665;41.106;16.688;2023-02-28T18:47:06;13.71;84.09
69464;DHT22;56665;41.106;16.688;2023-02-28T18:50:10;13.65;84.08
69464;DHT22;56665;41.106;16.688;2023-02-28T18:53:15;13.65;84.24
69464;DHT22;56665;41.106;16.688;2023-02-28T18:56:20;13.68;84.39
69464;DHT22;56665;41.106;16.688;2023-02-28T18:59:26;13.65;84.41
69464;DHT22;56665;41.106;16.688;2023-02-28T19:02:30;13.70;84.51
69464;DHT22;56665;41.106;16.688;2023-02-28T19:05:35;13.73;83.93
69464;DHT22;56665;41.106;16.688;2023-02-28T19:08:41;13.75;84.30
69464;DHT22;56665;41.106;16.688;2023-02-28T19:11:44;13.74;84.46
69464;DHT22;56665;41.106;16.688;2023-02-28T19:14:48;13.81;84.77
69464;DHT22;56665;41.106;16.688;2023-02-28T19:17:52;13.74;84.94
69464;DHT22;56665;41.106;16.688;2023-02-28T19:20:58;13.75;84.63
69464;DHT22;56665;41.106;16.688;2023-02-28T19:24:03;13.82;84.91
69464;DHT22;56665;41.106;16.688;2023-02-28T19:27:08;13.99;84.64
69464;DHT22;56665;41.106;16.688;2023-02-28T19:30:12;14.05;84.01
69464;DHT22;56665;41.106;16.688;2023-02-28T19:33:17;14.05;84.10
69464;DHT22;56665;41.106;16.688;2023-02-28T19:36:23;13.99;83.22
69464;DHT22;56665;41.106;16.688;2023-02-28T19:39:27;13.96;83.54
69464;DHT22;56665;41.106;16.688;2023-02-28T19:42:31;13.95;83.40
69464;DHT22;56665;41.106;16.688;2023-02-28T19:45:36;13.98;83.73
69464;DHT22;56665;41.106;16.688;2023-02-28T19:48:40;13.95;83.82
69464;DHT22;56665;41.106;16.688;2023-02-28T19:51:48;14.06;84.70
69464;DHT22;56665;41.106;16.688;2023-02-28T19:54:52;14.08;83.98
69464;DHT22;56665;41.106;16.688;2023-02-28T19:58:01;14.13;83.06
69464;DHT22;56665;41.106;16.688;2023-02-28T20:01:18;14.13;82.86
69464;DHT22;56665;41.106;16.688;2023-02-28T20:04:25;14.13;82.79
69464;DHT22;56665;41.106;16.688;2023-02-28T20:07:29;14.13;82.99
69464;DHT22;56665;41.106;16.688;2023-02-28T20:10:35;14.08;82.50
69464;DHT22;56665;41.106;16.688;2023-02-28T20:13:40;14.01;83.30
69464;DHT22;56665;41.106;16.688;2023-02-28T20:16:47;14.01;83.75
69464;DHT22;56665;41.106;16.688;2023-02-28T20:19:51;14.05;83.64
69464;DHT22;56665;41.106;16.688;2023-02-28T20:22:56;13.99;83.35
69464;DHT22;56665;41.106;16.688;2023-02-28T20:25:59;14.02;83.40
69464;DHT22;56665;41.106;16.688;2023-02-28T20:29:06;14.01;82.87
69464;DHT22;56665;41.106;16.688;2023-02-28T20:32:13;13.98;83.24
69464;DHT22;56665;41.106;16.688;2023-02-28T20:35:18;13.94;83.38
69464;DHT22;56665;41.106;16.688;2023-02-28T20:38:22;13.95;83.61
69464;DHT22;56665;41.106;16.688;2023-02-28T20:41:29;14.01;84.07
69464;DHT22;56665;41.106;16.688;2023-02-28T20:44:33;14.04;83.83
69464;DHT22;56665;41.106;16.688;2023-02-28T20:47:39;13.99;83.07
69464;DHT22;56665;41.106;16.688;2023-02-28T20:50:49;13.94;83.13
69464;DHT22;56665;41.106;16.688;2023-02-28T20:53:54;13.91;83.57
69464;DHT22;56665;41.106;16.688;2023-02-28T20:56:58;13.89;83.34
69464;DHT22;56665;41.106;16.688;2023-02-28T21:00:05;13.89;83.31